Terminal Aerodrome Forecast
Issued by NWS Twin Cities, MN

Home | Current Version | Previous Version | Graphics & Text | Print | Product List | Glossary On
Versions: 1 2 3 4 5 6 7 8 9 10 11 12 13 14 15
314
FTUS43 KMPX 072342
TAFSTC
TAF
KSTC 072342Z 0800/0824 27020G26KT P6SM -SN OVC025
      TEMPO 0802/0806 4SM -SN
     FM080600 29018G25KT 4SM -SN BR OVC015
     FM081500 32016G24KT P6SM -SN OVC020=

USA.gov is the U.S. government's official web portal to all federal, state and local government web resources and services.